sensor_id;sensor_type;location;lat;lon;timestamp;P1;durP1;ratioP1;P2;durP2;ratioP2
19547;SDS011;9919;58.014;11.826;2023-02-28T00:01:55;0.50;;;0.50;;
19547;SDS011;9919;58.014;11.826;2023-02-28T00:03:56;0.82;;;0.82;;
19547;SDS011;9919;58.014;11.826;2023-02-28T00:05:58;0.55;;;0.55;;
19547;SDS011;9919;58.014;11.826;2023-02-28T00:07:59;1.13;;;0.73;;
19547;SDS011;9919;58.014;11.826;2023-02-28T00:10:00;1.30;;;0.57;;
19547;SDS011;9919;58.014;11.826;2023-02-28T00:12:02;0.60;;;0.60;;
19547;SDS011;9919;58.014;11.826;2023-02-28T00:14:10;0.85;;;0.77;;
19547;SDS011;9919;58.014;11.826;2023-02-28T00:16:12;0.65;;;0.65;;
19547;SDS011;9919;58.014;11.826;2023-02-28T00:18:21;0.60;;;0.60;;
19547;SDS011;9919;58.014;11.826;2023-02-28T00:20:22;0.43;;;0.43;;
19547;SDS011;9919;58.014;11.826;2023-02-28T00:22:24;0.80;;;0.80;;
19547;SDS011;9919;58.014;11.826;2023-02-28T00:24:25;1.27;;;0.60;;
19547;SDS011;9919;58.014;11.826;2023-02-28T00:26:27;0.50;;;0.50;;
19547;SDS011;9919;58.014;11.826;2023-02-28T00:28:28;1.38;;;0.90;;
19547;SDS011;9919;58.014;11.826;2023-02-28T00:30:30;0.45;;;0.45;;
19547;SDS011;9919;58.014;11.826;2023-02-28T00:32:31;0.57;;;0.57;;
19547;SDS011;9919;58.014;11.826;2023-02-28T00:34:34;0.70;;;0.70;;
19547;SDS011;9919;58.014;11.826;2023-02-28T00:36:37;0.73;;;0.73;;
19547;SDS011;9919;58.014;11.826;2023-02-28T00:38:39;0.55;;;0.55;;
19547;SDS011;9919;58.014;11.826;2023-02-28T00:40:42;0.60;;;0.60;;
19547;SDS011;9919;58.014;11.826;2023-02-28T00:42:43;0.50;;;0.50;;
19547;SDS011;9919;58.014;11.826;2023-02-28T00:44:45;0.60;;;0.60;;
19547;SDS011;9919;58.014;11.826;2023-02-28T00:46:46;0.70;;;0.70;;
19547;SDS011;9919;58.014;11.826;2023-02-28T00:48:48;0.68;;;0.68;;
19547;SDS011;9919;58.014;11.826;2023-02-28T00:50:49;0.90;;;0.90;;
19547;SDS011;9919;58.014;11.826;2023-02-28T00:52:51;0.70;;;0.70;;
19547;SDS011;9919;58.014;11.826;2023-02-28T00:54:52;0.85;;;0.82;;
19547;SDS011;9919;58.014;11.826;2023-02-28T00:56:56;1.25;;;0.60;;
19547;SDS011;9919;58.014;11.826;2023-02-28T00:58:58;0.57;;;0.57;;
19547;SDS011;9919;58.014;11.826;2023-02-28T01:00:59;0.52;;;0.52;;
19547;SDS011;9919;58.014;11.826;2023-02-28T01:03:01;0.73;;;0.73;;
19547;SDS011;9919;58.014;11.826;2023-02-28T01:05:02;0.50;;;0.50;;
19547;SDS011;9919;58.014;11.826;2023-02-28T01:07:04;0.77;;;0.77;;
19547;SDS011;9919;58.014;11.826;2023-02-28T01:09:06;0.68;;;0.68;;
19547;SDS011;9919;58.014;11.826;2023-02-28T01:11:10;0.68;;;0.68;;
19547;SDS011;9919;58.014;11.826;2023-02-28T01:13:13;0.55;;;0.55;;
19547;SDS011;9919;58.014;11.826;2023-02-28T01:15:14;0.68;;;0.68;;
19547;SDS011;9919;58.014;11.826;2023-02-28T01:17:16;1.00;;;0.90;;
19547;SDS011;9919;58.014;11.826;2023-02-28T01:19:17;0.73;;;0.73;;
19547;SDS011;9919;58.014;11.826;2023-02-28T01:21:19;0.73;;;0.68;;
19547;SDS011;9919;58.014;11.826;2023-02-28T01:23:21;0.90;;;0.73;;
19547;SDS011;9919;58.014;11.826;2023-02-28T01:25:23;1.33;;;0.88;;
19547;SDS011;9919;58.014;11.826;2023-02-28T01:27:24;0.75;;;0.75;;
19547;SDS011;9919;58.014;11.826;2023-02-28T01:29:26;0.85;;;0.70;;
19547;SDS011;9919;58.014;11.826;2023-02-28T01:31:28;0.57;;;0.52;;
19547;SDS011;9919;58.014;11.826;2023-02-28T01:33:29;1.05;;;1.02;;
19547;SDS011;9919;58.014;11.826;2023-02-28T01:35:34;1.70;;;0.88;;
19547;SDS011;9919;58.014;11.826;2023-02-28T01:37:35;0.57;;;0.52;;
19547;SDS011;9919;58.014;11.826;2023-02-28T01:39:38;0.50;;;0.50;;
19547;SDS011;9919;58.014;11.826;2023-02-28T01:41:39;0.55;;;0.55;;
19547;SDS011;9919;58.014;11.826;2023-02-28T01:45:45;0.40;;;0.40;;
19547;SDS011;9919;58.014;11.826;2023-02-28T01:47:46;0.60;;;0.60;;
19547;SDS011;9919;58.014;11.826;2023-02-28T01:49:50;0.60;;;0.60;;
19547;SDS011;9919;58.014;11.826;2023-02-28T01:51:53;0.70;;;0.70;;
19547;SDS011;9919;58.014;11.826;2023-02-28T01:53:56;0.63;;;0.63;;
19547;SDS011;9919;58.014;11.826;2023-02-28T01:56:05;0.77;;;0.65;;
19547;SDS011;9919;58.014;11.826;2023-02-28T01:58:08;0.70;;;0.70;;
19547;SDS011;9919;58.014;11.826;2023-02-28T02:00:13;0.50;;;0.50;;
19547;SDS011;9919;58.014;11.826;2023-02-28T02:02:17;0.60;;;0.60;;
19547;SDS011;9919;58.014;11.826;2023-02-28T02:04:19;0.70;;;0.70;;
19547;SDS011;9919;58.014;11.826;2023-02-28T02:06:23;0.80;;;0.80;;
19547;SDS011;9919;58.014;11.826;2023-02-28T02:08:28;0.50;;;0.50;;
19547;SDS011;9919;58.014;11.826;2023-02-28T02:10:34;0.80;;;0.80;;
19547;SDS011;9919;58.014;11.826;2023-02-28T02:17:19;2.33;;;0.70;;
19547;SDS011;9919;58.014;11.826;2023-02-28T02:22:12;0.73;;;0.70;;
19547;SDS011;9919;58.014;11.826;2023-02-28T02:26:58;0.82;;;0.60;;
19547;SDS011;9919;58.014;11.826;2023-02-28T02:38:24;1.02;;;1.02;;
19547;SDS011;9919;58.014;11.826;2023-02-28T02:40:46;0.60;;;0.60;;
19547;SDS011;9919;58.014;11.826;2023-02-28T02:47:35;0.60;;;0.52;;
19547;SDS011;9919;58.014;11.826;2023-02-28T02:49:38;0.93;;;0.75;;
19547;SDS011;9919;58.014;11.826;2023-02-28T02:51:42;0.50;;;0.50;;
19547;SDS011;9919;58.014;11.826;2023-02-28T02:56:17;0.73;;;0.73;;
19547;SDS011;9919;58.014;11.826;2023-02-28T02:58:24;0.57;;;0.57;;
19547;SDS011;9919;58.014;11.826;2023-02-28T03:00:29;0.40;;;0.40;;
19547;SDS011;9919;58.014;11.826;2023-02-28T03:02:42;0.65;;;0.65;;
19547;SDS011;9919;58.014;11.826;2023-02-28T03:04:45;1.35;;;0.90;;
19547;SDS011;9919;58.014;11.826;2023-02-28T03:06:54;0.50;;;0.50;;
19547;SDS011;9919;58.014;11.826;2023-02-28T03:08:55;0.80;;;0.80;;
19547;SDS011;9919;58.014;11.826;2023-02-28T03:10:57;0.50;;;0.50;;
19547;SDS011;9919;58.014;11.826;2023-02-28T03:13:07;0.82;;;0.82;;
19547;SDS011;9919;58.014;11.826;2023-02-28T03:15:24;1.63;;;0.85;;
19547;SDS011;9919;58.014;11.826;2023-02-28T03:17:50;0.73;;;0.63;;
19547;SDS011;9919;58.014;11.826;2023-02-28T03:24:39;0.73;;;0.73;;
19547;SDS011;9919;58.014;11.826;2023-02-28T03:26:49;0.80;;;0.80;;
19547;SDS011;9919;58.014;11.826;2023-02-28T03:29:21;0.50;;;0.50;;
19547;SDS011;9919;58.014;11.826;2023-02-28T03:31:37;0.50;;;0.50;;
19547;SDS011;9919;58.014;11.826;2023-02-28T03:34:13;0.55;;;0.55;;
19547;SDS011;9919;58.014;11.826;2023-02-28T03:36:10;0.73;;;0.73;;
19547;SDS011;9919;58.014;11.826;2023-02-28T03:40:46;0.80;;;0.80;;
19547;SDS011;9919;58.014;11.826;2023-02-28T03:42:53;0.68;;;0.68;;
19547;SDS011;9919;58.014;11.826;2023-02-28T03:44:58;0.50;;;0.50;;
19547;SDS011;9919;58.014;11.826;2023-02-28T03:47:03;0.70;;;0.70;;
19547;SDS011;9919;58.014;11.826;2023-02-28T03:49:15;0.52;;;0.52;;
19547;SDS011;9919;58.014;11.826;2023-02-28T03:51:22;0.50;;;0.50;;
19547;SDS011;9919;58.014;11.826;2023-02-28T03:53:32;0.77;;;0.77;;
19547;SDS011;9919;58.014;11.826;2023-02-28T03:55:47;0.65;;;0.65;;
19547;SDS011;9919;58.014;11.826;2023-02-28T03:58:01;0.63;;;0.63;;
19547;SDS011;9919;58.014;11.826;2023-02-28T04:00:20;0.73;;;0.73;;
19547;SDS011;9919;58.014;11.826;2023-02-28T04:02:33;0.40;;;0.40;;
19547;SDS011;9919;58.014;11.826;2023-02-28T04:04:36;0.63;;;0.63;;
19547;SDS011;9919;58.014;11.826;2023-02-28T04:06:37;0.60;;;0.60;;
19547;SDS011;9919;58.014;11.826;2023-02-28T04:08:38;0.57;;;0.52;;
19547;SDS011;9919;58.014;11.826;2023-02-28T04:10:40;0.88;;;0.70;;
19547;SDS011;9919;58.014;11.826;2023-02-28T04:12:43;0.55;;;0.55;;
19547;SDS011;9919;58.014;11.826;2023-02-28T04:14:44;0.60;;;0.60;;
19547;SDS011;9919;58.014;11.826;2023-02-28T04:16:46;1.70;;;0.88;;
19547;SDS011;9919;58.014;11.826;2023-02-28T04:18:47;0.30;;;0.30;;
19547;SDS011;9919;58.014;11.826;2023-02-28T04:20:48;0.40;;;0.40;;
19547;SDS011;9919;58.014;11.826;2023-02-28T04:22:50;0.50;;;0.50;;
19547;SDS011;9919;58.014;11.826;2023-02-28T04:24:52;0.68;;;0.68;;
19547;SDS011;9919;58.014;11.826;2023-02-28T04:26:56;0.63;;;0.63;;
19547;SDS011;9919;58.014;11.826;2023-02-28T04:28:59;0.55;;;0.55;;
19547;SDS011;9919;58.014;11.826;2023-02-28T04:31:02;0.82;;;0.82;;
19547;SDS011;9919;58.014;11.826;2023-02-28T04:33:04;1.77;;;0.75;;
19547;SDS011;9919;58.014;11.826;2023-02-28T04:35:06;0.70;;;0.40;;
19547;SDS011;9919;58.014;11.826;2023-02-28T04:37:08;0.93;;;0.80;;
19547;SDS011;9919;58.014;11.826;2023-02-28T04:39:09;0.50;;;0.50;;
19547;SDS011;9919;58.014;11.826;2023-02-28T04:41:11;0.70;;;0.70;;
19547;SDS011;9919;58.014;11.826;2023-02-28T04:43:12;0.70;;;0.70;;
19547;SDS011;9919;58.014;11.826;2023-02-28T04:45:14;0.52;;;0.52;;
19547;SDS011;9919;58.014;11.826;2023-02-28T04:47:16;0.43;;;0.43;;
19547;SDS011;9919;58.014;11.826;2023-02-28T04:49:17;0.50;;;0.50;;
19547;SDS011;9919;58.014;11.826;2023-02-28T04:51:19;0.43;;;0.43;;
19547;SDS011;9919;58.014;11.826;2023-02-28T04:53:20;0.55;;;0.55;;
19547;SDS011;9919;58.014;11.826;2023-02-28T04:55:22;0.45;;;0.45;;
19547;SDS011;9919;58.014;11.826;2023-02-28T04:57:23;1.70;;;0.57;;
19547;SDS011;9919;58.014;11.826;2023-02-28T04:59:24;0.70;;;0.70;;
19547;SDS011;9919;58.014;11.826;2023-02-28T05:01:27;1.30;;;1.10;;
19547;SDS011;9919;58.014;11.826;2023-02-28T05:03:29;0.90;;;0.90;;
19547;SDS011;9919;58.014;11.826;2023-02-28T05:05:31;1.02;;;0.80;;
19547;SDS011;9919;58.014;11.826;2023-02-28T05:07:32;0.70;;;0.70;;
19547;SDS011;9919;58.014;11.826;2023-02-28T05:09:34;0.85;;;0.85;;
19547;SDS011;9919;58.014;11.826;2023-02-28T05:11:36;0.70;;;0.70;;
19547;SDS011;9919;58.014;11.826;2023-02-28T05:13:39;0.73;;;0.73;;
19547;SDS011;9919;58.014;11.826;2023-02-28T05:15:40;0.95;;;0.90;;
19547;SDS011;9919;58.014;11.826;2023-02-28T05:17:41;0.98;;;0.80;;
19547;SDS011;9919;58.014;11.826;2023-02-28T05:19:43;0.68;;;0.68;;
19547;SDS011;9919;58.014;11.826;2023-02-28T05:21:51;0.93;;;0.88;;
19547;SDS011;9919;58.014;11.826;2023-02-28T05:23:54;0.88;;;0.70;;
19547;SDS011;9919;58.014;11.826;2023-02-28T05:25:57;0.75;;;0.75;;
19547;SDS011;9919;58.014;11.826;2023-02-28T05:27:58;0.75;;;0.68;;
19547;SDS011;9919;58.014;11.826;2023-02-28T05:30:00;0.80;;;0.80;;
19547;SDS011;9919;58.014;11.826;2023-02-28T05:32:03;1.85;;;0.90;;
19547;SDS011;9919;58.014;11.826;2023-02-28T05:34:05;0.70;;;0.70;;
19547;SDS011;9919;58.014;11.826;2023-02-28T05:36:06;1.05;;;0.90;;
19547;SDS011;9919;58.014;11.826;2023-02-28T05:38:08;0.57;;;0.57;;
19547;SDS011;9919;58.014;11.826;2023-02-28T05:40:09;1.08;;;0.98;;
19547;SDS011;9919;58.014;11.826;2023-02-28T05:42:11;0.75;;;0.75;;
19547;SDS011;9919;58.014;11.826;2023-02-28T05:44:12;0.82;;;0.77;;
19547;SDS011;9919;58.014;11.826;2023-02-28T05:46:14;0.52;;;0.52;;
19547;SDS011;9919;58.014;11.826;2023-02-28T05:48:16;0.80;;;0.80;;
19547;SDS011;9919;58.014;11.826;2023-02-28T05:50:18;0.75;;;0.75;;
19547;SDS011;9919;58.014;11.826;2023-02-28T05:52:20;0.65;;;0.65;;
19547;SDS011;9919;58.014;11.826;2023-02-28T05:54:22;1.73;;;0.90;;
19547;SDS011;9919;58.014;11.826;2023-02-28T05:56:23;0.93;;;0.70;;
19547;SDS011;9919;58.014;11.826;2023-02-28T05:58:24;1.83;;;1.05;;
19547;SDS011;9919;58.014;11.826;2023-02-28T06:00:30;1.20;;;1.00;;
19547;SDS011;9919;58.014;11.826;2023-02-28T06:02:31;0.90;;;0.82;;
19547;SDS011;9919;58.014;11.826;2023-02-28T06:04:33;1.25;;;1.25;;
19547;SDS011;9919;58.014;11.826;2023-02-28T06:06:35;2.22;;;0.82;;
19547;SDS011;9919;58.014;11.826;2023-02-28T06:08:37;1.00;;;1.00;;
19547;SDS011;9919;58.014;11.826;2023-02-28T06:10:38;1.17;;;1.05;;
19547;SDS011;9919;58.014;11.826;2023-02-28T06:12:40;0.57;;;0.57;;
19547;SDS011;9919;58.014;11.826;2023-02-28T06:14:41;0.60;;;0.60;;
19547;SDS011;9919;58.014;11.826;2023-02-28T06:16:44;1.13;;;0.52;;
19547;SDS011;9919;58.014;11.826;2023-02-28T06:18:46;1.15;;;0.80;;
19547;SDS011;9919;58.014;11.826;2023-02-28T06:20:54;1.55;;;0.90;;
19547;SDS011;9919;58.014;11.826;2023-02-28T06:22:56;1.40;;;0.93;;
19547;SDS011;9919;58.014;11.826;2023-02-28T06:24:58;1.80;;;1.00;;
19547;SDS011;9919;58.014;11.826;2023-02-28T06:26:59;0.80;;;0.80;;
19547;SDS011;9919;58.014;11.826;2023-02-28T06:29:04;1.75;;;1.20;;
19547;SDS011;9919;58.014;11.826;2023-02-28T06:31:10;0.65;;;0.65;;
19547;SDS011;9919;58.014;11.826;2023-02-28T06:33:12;1.55;;;0.80;;
19547;SDS011;9919;58.014;11.826;2023-02-28T06:35:14;1.67;;;0.80;;
19547;SDS011;9919;58.014;11.826;2023-02-28T06:37:17;0.70;;;0.70;;
19547;SDS011;9919;58.014;11.826;2023-02-28T06:39:18;1.23;;;1.10;;
19547;SDS011;9919;58.014;11.826;2023-02-28T06:41:21;2.53;;;0.95;;
19547;SDS011;9919;58.014;11.826;2023-02-28T06:43:24;0.55;;;0.55;;
19547;SDS011;9919;58.014;11.826;2023-02-28T06:45:28;1.23;;;0.65;;
19547;SDS011;9919;58.014;11.826;2023-02-28T06:47:30;0.80;;;0.80;;
19547;SDS011;9919;58.014;11.826;2023-02-28T06:49:33;1.60;;;1.00;;
19547;SDS011;9919;58.014;11.826;2023-02-28T06:51:35;1.05;;;0.80;;
19547;SDS011;9919;58.014;11.826;2023-02-28T06:53:38;1.27;;;1.08;;
19547;SDS011;9919;58.014;11.826;2023-02-28T06:55:39;1.10;;;0.85;;
19547;SDS011;9919;58.014;11.826;2023-02-28T06:57:41;0.93;;;0.93;;
19547;SDS011;9919;58.014;11.826;2023-02-28T06:59:42;1.20;;;0.80;;
19547;SDS011;9919;58.014;11.826;2023-02-28T07:01:43;2.75;;;0.77;;
19547;SDS011;9919;58.014;11.826;2023-02-28T07:03:45;3.35;;;1.00;;
19547;SDS011;9919;58.014;11.826;2023-02-28T07:05:52;0.88;;;0.88;;
19547;SDS011;9919;58.014;11.826;2023-02-28T07:07:56;1.77;;;1.00;;
19547;SDS011;9919;58.014;11.826;2023-02-28T07:09:59;1.40;;;0.80;;
19547;SDS011;9919;58.014;11.826;2023-02-28T07:12:00;3.40;;;0.88;;
19547;SDS011;9919;58.014;11.826;2023-02-28T07:14:02;0.80;;;0.80;;
19547;SDS011;9919;58.014;11.826;2023-02-28T07:16:05;0.70;;;0.70;;
19547;SDS011;9919;58.014;11.826;2023-02-28T07:18:08;0.65;;;0.65;;
19547;SDS011;9919;58.014;11.826;2023-02-28T07:20:10;1.00;;;1.00;;
19547;SDS011;9919;58.014;11.826;2023-02-28T07:22:12;1.48;;;1.15;;
19547;SDS011;9919;58.014;11.826;2023-02-28T07:24:14;1.05;;;0.93;;
19547;SDS011;9919;58.014;11.826;2023-02-28T07:26:18;0.85;;;0.85;;
19547;SDS011;9919;58.014;11.826;2023-02-28T07:28:20;1.10;;;1.00;;
19547;SDS011;9919;58.014;11.826;2023-02-28T07:30:22;0.68;;;0.68;;
19547;SDS011;9919;58.014;11.826;2023-02-28T07:32:23;1.45;;;0.90;;
19547;SDS011;9919;58.014;11.826;2023-02-28T07:34:25;1.05;;;0.95;;
19547;SDS011;9919;58.014;11.826;2023-02-28T07:36:26;0.80;;;0.80;;
19547;SDS011;9919;58.014;11.826;2023-02-28T07:38:28;0.55;;;0.55;;
19547;SDS011;9919;58.014;11.826;2023-02-28T07:40:29;0.70;;;0.70;;
19547;SDS011;9919;58.014;11.826;2023-02-28T07:42:31;22.45;;;2.55;;
19547;SDS011;9919;58.014;11.826;2023-02-28T07:44:33;35.45;;;3.80;;
19547;SDS011;9919;58.014;11.826;2023-02-28T07:46:40;76.18;;;5.63;;
19547;SDS011;9919;58.014;11.826;2023-02-28T07:48:42;34.63;;;4.72;;
19547;SDS011;9919;58.014;11.826;2023-02-28T07:50:43;39.80;;;3.95;;
19547;SDS011;9919;58.014;11.826;2023-02-28T07:52:48;38.58;;;4.53;;
19547;SDS011;9919;58.014;11.826;2023-02-28T07:54:49;17.85;;;3.03;;
19547;SDS011;9919;58.014;11.826;2023-02-28T07:56:51;28.65;;;3.45;;
19547;SDS011;9919;58.014;11.826;2023-02-28T07:58:52;24.52;;;4.05;;
19547;SDS011;9919;58.014;11.826;2023-02-28T08:00:53;37.08;;;3.13;;
19547;SDS011;9919;58.014;11.826;2023-02-28T08:02:55;21.67;;;2.97;;
19547;SDS011;9919;58.014;11.826;2023-02-28T08:04:57;29.95;;;3.53;;
19547;SDS011;9919;58.014;11.826;2023-02-28T08:06:59;39.30;;;3.83;;
19547;SDS011;9919;58.014;11.826;2023-02-28T08:09:00;17.90;;;3.15;;
19547;SDS011;9919;58.014;11.826;2023-02-28T08:11:03;20.33;;;3.75;;
19547;SDS011;9919;58.014;11.826;2023-02-28T08:13:05;16.00;;;3.08;;
19547;SDS011;9919;58.014;11.826;2023-02-28T08:15:06;7.22;;;2.17;;
19547;SDS011;9919;58.014;11.826;2023-02-28T08:17:08;16.63;;;2.22;;
19547;SDS011;9919;58.014;11.826;2023-02-28T08:19:10;12.63;;;2.13;;
19547;SDS011;9919;58.014;11.826;2023-02-28T08:21:11;25.50;;;2.80;;
19547;SDS011;9919;58.014;11.826;2023-02-28T08:23:14;22.35;;;2.50;;
19547;SDS011;9919;58.014;11.826;2023-02-28T08:25:16;16.25;;;1.80;;
19547;SDS011;9919;58.014;11.826;2023-02-28T08:27:18;11.10;;;1.85;;
19547;SDS011;9919;58.014;11.826;2023-02-28T08:29:19;13.95;;;1.65;;
19547;SDS011;9919;58.014;11.826;2023-02-28T08:31:20;9.73;;;1.70;;
19547;SDS011;9919;58.014;11.826;2023-02-28T08:33:23;3.30;;;1.50;;
19547;SDS011;9919;58.014;11.826;2023-02-28T08:35:25;10.18;;;2.15;;
19547;SDS011;9919;58.014;11.826;2023-02-28T08:37:27;14.52;;;2.47;;
19547;SDS011;9919;58.014;11.826;2023-02-28T08:39:28;10.63;;;1.90;;
19547;SDS011;9919;58.014;11.826;2023-02-28T08:41:30;13.77;;;1.80;;
19547;SDS011;9919;58.014;11.826;2023-02-28T08:43:31;10.43;;;1.65;;
19547;SDS011;9919;58.014;11.826;2023-02-28T08:45:33;6.47;;;1.48;;
19547;SDS011;9919;58.014;11.826;2023-02-28T08:47:35;8.65;;;2.15;;
19547;SDS011;9919;58.014;11.826;2023-02-28T08:49:36;8.52;;;1.73;;
19547;SDS011;9919;58.014;11.826;2023-02-28T08:51:38;16.23;;;1.42;;
19547;SDS011;9919;58.014;11.826;2023-02-28T08:53:40;5.60;;;1.98;;
19547;SDS011;9919;58.014;11.826;2023-02-28T08:55:41;7.35;;;1.52;;
19547;SDS011;9919;58.014;11.826;2023-02-28T08:57:43;9.30;;;2.10;;
19547;SDS011;9919;58.014;11.826;2023-02-28T08:59:44;7.03;;;1.70;;
19547;SDS011;9919;58.014;11.826;2023-02-28T09:01:46;7.63;;;1.90;;
19547;SDS011;9919;58.014;11.826;2023-02-28T09:03:48;2.33;;;1.50;;
19547;SDS011;9919;58.014;11.826;2023-02-28T09:05:54;6.50;;;1.48;;
19547;SDS011;9919;58.014;11.826;2023-02-28T09:07:56;1.95;;;1.60;;
19547;SDS011;9919;58.014;11.826;2023-02-28T09:09:57;5.68;;;1.15;;
19547;SDS011;9919;58.014;11.826;2023-02-28T09:12:00;9.50;;;1.85;;
19547;SDS011;9919;58.014;11.826;2023-02-28T09:14:02;9.35;;;1.90;;
19547;SDS011;9919;58.014;11.826;2023-02-28T09:16:04;8.25;;;2.08;;
19547;SDS011;9919;58.014;11.826;2023-02-28T09:18:08;7.95;;;2.22;;
19547;SDS011;9919;58.014;11.826;2023-02-28T09:20:09;3.95;;;1.45;;
19547;SDS011;9919;58.014;11.826;2023-02-28T09:22:11;8.57;;;2.35;;
19547;SDS011;9919;58.014;11.826;2023-02-28T09:24:12;6.22;;;1.75;;
19547;SDS011;9919;58.014;11.826;2023-02-28T09:26:22;4.30;;;1.65;;
19547;SDS011;9919;58.014;11.826;2023-02-28T09:28:27;6.32;;;1.38;;
19547;SDS011;9919;58.014;11.826;2023-02-28T09:30:29;4.75;;;1.55;;
19547;SDS011;9919;58.014;11.826;2023-02-28T09:32:30;4.65;;;1.40;;
19547;SDS011;9919;58.014;11.826;2023-02-28T09:34:31;1.77;;;1.20;;
19547;SDS011;9919;58.014;11.826;2023-02-28T09:36:33;5.57;;;1.70;;
19547;SDS011;9919;58.014;11.826;2023-02-28T09:38:37;5.18;;;2.10;;
19547;SDS011;9919;58.014;11.826;2023-02-28T09:40:53;5.50;;;1.27;;
19547;SDS011;9919;58.014;11.826;2023-02-28T09:42:57;7.30;;;1.80;;
19547;SDS011;9919;58.014;11.826;2023-02-28T09:45:00;2.97;;;1.50;;
19547;SDS011;9919;58.014;11.826;2023-02-28T09:47:12;1.70;;;1.15;;
19547;SDS011;9919;58.014;11.826;2023-02-28T09:49:22;4.60;;;1.40;;
19547;SDS011;9919;58.014;11.826;2023-02-28T09:53:51;1.83;;;1.35;;
19547;SDS011;9919;58.014;11.826;2023-02-28T09:55:55;2.70;;;1.60;;
19547;SDS011;9919;58.014;11.826;2023-02-28T09:58:01;4.20;;;1.20;;
19547;SDS011;9919;58.014;11.826;2023-02-28T10:00:19;3.47;;;1.30;;
19547;SDS011;9919;58.014;11.826;2023-02-28T10:04:50;4.60;;;1.35;;
19547;SDS011;9919;58.014;11.826;2023-02-28T10:06:57;2.95;;;1.25;;
19547;SDS011;9919;58.014;11.826;2023-02-28T10:11:09;4.15;;;0.95;;
19547;SDS011;9919;58.014;11.826;2023-02-28T10:15:44;1.50;;;1.27;;
19547;SDS011;9919;58.014;11.826;2023-02-28T10:17:47;4.60;;;1.83;;
19547;SDS011;9919;58.014;11.826;2023-02-28T10:19:59;15.85;;;1.90;;
19547;SDS011;9919;58.014;11.826;2023-02-28T10:22:12;1.83;;;1.42;;
19547;SDS011;9919;58.014;11.826;2023-02-28T10:26:20;2.80;;;1.20;;
19547;SDS011;9919;58.014;11.826;2023-02-28T10:28:24;2.92;;;1.40;;
19547;SDS011;9919;58.014;11.826;2023-02-28T10:30:27;1.65;;;1.30;;
19547;SDS011;9919;58.014;11.826;2023-02-28T10:32:32;2.55;;;1.20;;
19547;SDS011;9919;58.014;11.826;2023-02-28T10:34:34;1.30;;;1.20;;
19547;SDS011;9919;58.014;11.826;2023-02-28T10:36:36;1.35;;;0.90;;
19547;SDS011;9919;58.014;11.826;2023-02-28T10:38:38;1.27;;;1.25;;
19547;SDS011;9919;58.014;11.826;2023-02-28T10:40:40;2.88;;;1.30;;
19547;SDS011;9919;58.014;11.826;2023-02-28T10:42:41;1.15;;;1.10;;
19547;SDS011;9919;58.014;11.826;2023-02-28T10:44:42;2.67;;;1.67;;
19547;SDS011;9919;58.014;11.826;2023-02-28T10:46:44;4.05;;;1.92;;
19547;SDS011;9919;58.014;11.826;2023-02-28T10:49:03;2.30;;;1.40;;
19547;SDS011;9919;58.014;11.826;2023-02-28T10:51:08;2.80;;;1.65;;
19547;SDS011;9919;58.014;11.826;2023-02-28T10:55:25;1.50;;;1.10;;
19547;SDS011;9919;58.014;11.826;2023-02-28T10:57:26;1.70;;;1.60;;
19547;SDS011;9919;58.014;11.826;2023-02-28T10:59:32;3.90;;;1.52;;
19547;SDS011;9919;58.014;11.826;2023-02-28T11:03:45;4.03;;;1.58;;
19547;SDS011;9919;58.014;11.826;2023-02-28T11:05:47;4.55;;;1.75;;
19547;SDS011;9919;58.014;11.826;2023-02-28T11:07:56;3.35;;;1.63;;
19547;SDS011;9919;58.014;11.826;2023-02-28T11:10:04;1.88;;;1.63;;
19547;SDS011;9919;58.014;11.826;2023-02-28T11:12:07;3.45;;;1.55;;
19547;SDS011;9919;58.014;11.826;2023-02-28T11:14:21;2.38;;;1.33;;
19547;SDS011;9919;58.014;11.826;2023-02-28T11:16:35;2.22;;;1.80;;
19547;SDS011;9919;58.014;11.826;2023-02-28T11:18:46;2.08;;;1.88;;
19547;SDS011;9919;58.014;11.826;2023-02-28T11:20:52;1.60;;;1.50;;
19547;SDS011;9919;58.014;11.826;2023-02-28T11:22:54;1.55;;;1.45;;
19547;SDS011;9919;58.014;11.826;2023-02-28T11:24:57;4.80;;;2.33;;
19547;SDS011;9919;58.014;11.826;2023-02-28T11:27:01;4.25;;;1.95;;
19547;SDS011;9919;58.014;11.826;2023-02-28T11:29:08;3.10;;;2.08;;
19547;SDS011;9919;58.014;11.826;2023-02-28T11:31:31;2.33;;;2.03;;
19547;SDS011;9919;58.014;11.826;2023-02-28T11:33:40;1.95;;;1.27;;
19547;SDS011;9919;58.014;11.826;2023-02-28T11:35:41;2.03;;;1.63;;
19547;SDS011;9919;58.014;11.826;2023-02-28T11:37:43;4.88;;;2.10;;
19547;SDS011;9919;58.014;11.826;2023-02-28T11:39:45;4.10;;;2.17;;
19547;SDS011;9919;58.014;11.826;2023-02-28T11:43:58;4.47;;;1.60;;
19547;SDS011;9919;58.014;11.826;2023-02-28T11:48:58;2.53;;;2.35;;
19547;SDS011;9919;58.014;11.826;2023-02-28T11:58:25;4.93;;;2.55;;
19547;SDS011;9919;58.014;11.826;2023-02-28T12:01:25;7.90;;;2.35;;
19547;SDS011;9919;58.014;11.826;2023-02-28T12:03:33;5.40;;;3.15;;
19547;SDS011;9919;58.014;11.826;2023-02-28T12:05:46;15.52;;;3.00;;
19547;SDS011;9919;58.014;11.826;2023-02-28T12:08:09;4.82;;;3.55;;
19547;SDS011;9919;58.014;11.826;2023-02-28T12:10:23;6.35;;;2.38;;
19547;SDS011;9919;58.014;11.826;2023-02-28T12:19:13;3.40;;;1.80;;
19547;SDS011;9919;58.014;11.826;2023-02-28T12:24:00;2.40;;;1.88;;
19547;SDS011;9919;58.014;11.826;2023-02-28T12:28:44;2.10;;;1.90;;
19547;SDS011;9919;58.014;11.826;2023-02-28T12:30:51;1.83;;;1.73;;
19547;SDS011;9919;58.014;11.826;2023-02-28T12:33:03;2.13;;;2.00;;
19547;SDS011;9919;58.014;11.826;2023-02-28T12:37:14;2.80;;;1.85;;
19547;SDS011;9919;58.014;11.826;2023-02-28T12:39:23;4.15;;;1.80;;
19547;SDS011;9919;58.014;11.826;2023-02-28T12:43:42;2.03;;;1.92;;
19547;SDS011;9919;58.014;11.826;2023-02-28T12:45:50;2.95;;;1.70;;
19547;SDS011;9919;58.014;11.826;2023-02-28T12:48:02;2.40;;;1.60;;
19547;SDS011;9919;58.014;11.826;2023-02-28T12:50:07;2.35;;;1.75;;
19547;SDS011;9919;58.014;11.826;2023-02-28T12:52:11;3.35;;;1.80;;
19547;SDS011;9919;58.014;11.826;2023-02-28T12:58:59;1.55;;;1.45;;
19547;SDS011;9919;58.014;11.826;2023-02-28T13:10:22;3.33;;;1.67;;
19547;SDS011;9919;58.014;11.826;2023-02-28T13:12:23;2.40;;;1.92;;
19547;SDS011;9919;58.014;11.826;2023-02-28T13:16:55;2.78;;;1.70;;
19547;SDS011;9919;58.014;11.826;2023-02-28T13:19:08;3.15;;;1.80;;
19547;SDS011;9919;58.014;11.826;2023-02-28T13:21:29;1.30;;;1.20;;
19547;SDS011;9919;58.014;11.826;2023-02-28T13:23:39;2.22;;;1.50;;
19547;SDS011;9919;58.014;11.826;2023-02-28T13:27:47;2.13;;;1.23;;
19547;SDS011;9919;58.014;11.826;2023-02-28T13:29:54;8.52;;;1.77;;
19547;SDS011;9919;58.014;11.826;2023-02-28T13:34:13;2.90;;;1.90;;
19547;SDS011;9919;58.014;11.826;2023-02-28T13:38:32;3.03;;;1.52;;
19547;SDS011;9919;58.014;11.826;2023-02-28T13:40:35;1.35;;;1.05;;
19547;SDS011;9919;58.014;11.826;2023-02-28T13:45:18;6.03;;;1.42;;
19547;SDS011;9919;58.014;11.826;2023-02-28T13:47:39;1.85;;;1.30;;
19547;SDS011;9919;58.014;11.826;2023-02-28T13:49:47;1.95;;;1.10;;
19547;SDS011;9919;58.014;11.826;2023-02-28T13:51:49;2.65;;;1.40;;
19547;SDS011;9919;58.014;11.826;2023-02-28T13:53:55;3.65;;;1.52;;
19547;SDS011;9919;58.014;11.826;2023-02-28T14:06:16;1.20;;;1.10;;
19547;SDS011;9919;58.014;11.826;2023-02-28T14:08:26;4.13;;;1.15;;
19547;SDS011;9919;58.014;11.826;2023-02-28T14:10:33;1.70;;;1.60;;
19547;SDS011;9919;58.014;11.826;2023-02-28T14:14:59;1.10;;;1.10;;
19547;SDS011;9919;58.014;11.826;2023-02-28T14:17:07;2.10;;;1.25;;
19547;SDS011;9919;58.014;11.826;2023-02-28T14:19:14;1.55;;;1.25;;
19547;SDS011;9919;58.014;11.826;2023-02-28T14:21:24;2.50;;;1.05;;
19547;SDS011;9919;58.014;11.826;2023-02-28T14:23:46;2.28;;;1.23;;
19547;SDS011;9919;58.014;11.826;2023-02-28T14:33:00;1.67;;;1.15;;
19547;SDS011;9919;58.014;11.826;2023-02-28T14:37:33;1.45;;;0.93;;